CES6420 ZUCK-ZSNJ
Flight info
| Callsign | CES6420 |
|---|---|
| Flight time | 1h 45m |
| Altitude | 33100 |
| Route | OLNER B213 WHA R343 HFE W51 LEGIV W164 OREVO |
| Aircraft | A20N/M-SDE2E3FGHIRWXY/LB1 |
Departure
| Time | 2026-04-28 06:15 |
|---|---|
| Airport | Chongqing Jiangbei International Airport (ZUCK) |
Arrival
| Time | 2026-04-28 08:00 |
|---|---|
| Airport | Nanjing Lukou International Airport (ZSNJ) |
| Time | Latitude | Longitude | Altitude | Speed | Heading |
|---|---|---|---|---|---|
| 2026-04-28 05:21 | 29.71752 | 106.65164 | 1371 ft | 0 kts | 281° |
| 2026-04-28 06:02 | 29.71751 | 106.65165 | 1369 ft | 1 kts | 281° |
| 2026-04-28 06:02 | 29.71749 | 106.65182 | 1369 ft | 2 kts | 280° |
| 2026-04-28 06:02 | 29.71746 | 106.65198 | 1369 ft | 2 kts | 281° |
| 2026-04-28 06:02 | 29.71741 | 106.65215 | 1369 ft | 2 kts | 307° |
| 2026-04-28 06:03 | 29.71731 | 106.65227 | 1369 ft | 2 kts | 329° |
| 2026-04-28 06:03 | 29.71716 | 106.65233 | 1369 ft | 2 kts | 354° |
| 2026-04-28 06:03 | 29.71708 | 106.65233 | 1369 ft | 1 kts | 8° |
| 2026-04-28 06:03 | 29.71702 | 106.65232 | 1369 ft | 0 kts | 9° |
| 2026-04-28 06:05 | 29.71703 | 106.65232 | 1369 ft | 0 kts | 8° |
| 2026-04-28 06:05 | 29.71717 | 106.65234 | 1369 ft | 3 kts | 9° |
| 2026-04-28 06:06 | 29.71745 | 106.65240 | 1369 ft | 5 kts | 8° |
| 2026-04-28 06:06 | 29.71787 | 106.65251 | 1369 ft | 7 kts | 17° |
| 2026-04-28 06:06 | 29.71842 | 106.65268 | 1369 ft | 8 kts | 17° |
| 2026-04-28 06:06 | 29.71905 | 106.65288 | 1369 ft | 10 kts | 16° |
| 2026-04-28 06:07 | 29.71980 | 106.65310 | 1369 ft | 11 kts | 6° |
| 2026-04-28 06:07 | 29.72061 | 106.65324 | 1369 ft | 12 kts | 14° |
| 2026-04-28 06:07 | 29.72125 | 106.65330 | 1369 ft | 8 kts | 356° |
| 2026-04-28 06:07 | 29.72177 | 106.65293 | 1370 ft | 10 kts | 285° |
| 2026-04-28 06:08 | 29.72199 | 106.65206 | 1369 ft | 12 kts | 286° |
| 2026-04-28 06:08 | 29.72224 | 106.65111 | 1369 ft | 11 kts | 287° |
| 2026-04-28 06:08 | 29.72246 | 106.65015 | 1369 ft | 13 kts | 271° |
| 2026-04-28 06:08 | 29.72184 | 106.64949 | 1369 ft | 14 kts | 198° |
| 2026-04-28 06:09 | 29.72083 | 106.64913 | 1369 ft | 16 kts | 197° |
| 2026-04-28 06:09 | 29.71970 | 106.64875 | 1369 ft | 17 kts | 197° |
| 2026-04-28 06:09 | 29.71860 | 106.64836 | 1369 ft | 15 kts | 197° |
| 2026-04-28 06:09 | 29.71751 | 106.64799 | 1369 ft | 16 kts | 198° |
| 2026-04-28 06:10 | 29.71639 | 106.64761 | 1369 ft | 17 kts | 196° |
| 2026-04-28 06:10 | 29.71531 | 106.64722 | 1369 ft | 15 kts | 197° |
| 2026-04-28 06:10 | 29.71423 | 106.64686 | 1369 ft | 16 kts | 197° |
| 2026-04-28 06:10 | 29.71310 | 106.64646 | 1369 ft | 17 kts | 196° |
| 2026-04-28 06:11 | 29.71189 | 106.64604 | 1369 ft | 18 kts | 196° |
| 2026-04-28 06:11 | 29.71062 | 106.64562 | 1369 ft | 19 kts | 198° |
| 2026-04-28 06:11 | 29.70927 | 106.64514 | 1369 ft | 19 kts | 197° |
| 2026-04-28 06:11 | 29.70816 | 106.64476 | 1369 ft | 16 kts | 197° |
| 2026-04-28 06:12 | 29.70702 | 106.64436 | 1369 ft | 17 kts | 197° |
| 2026-04-28 06:12 | 29.70612 | 106.64406 | 1369 ft | 9 kts | 197° |
| 2026-04-28 06:12 | 29.70598 | 106.64349 | 1369 ft | 9 kts | 283° |
| 2026-04-28 06:12 | 29.70616 | 106.64273 | 1369 ft | 9 kts | 287° |
| 2026-04-28 06:13 | 29.70626 | 106.64238 | 1369 ft | 0 kts | 287° |
| 2026-04-28 06:13 | 29.70629 | 106.64228 | 1369 ft | 2 kts | 287° |
| 2026-04-28 06:13 | 29.70636 | 106.64202 | 1369 ft | 4 kts | 287° |
| 2026-04-28 06:14 | 29.70648 | 106.64161 | 1369 ft | 6 kts | 302° |
| 2026-04-28 06:14 | 29.70694 | 106.64144 | 1369 ft | 8 kts | 7° |
| 2026-04-28 06:14 | 29.70713 | 106.64150 | 1369 ft | 0 kts | 18° |
| 2026-04-28 06:14 | 29.70795 | 106.64179 | 1369 ft | 42 kts | 17° |
| 2026-04-28 06:15 | 29.71317 | 106.64356 | 1369 ft | 111 kts | 18° |
| 2026-04-28 06:15 | 29.72257 | 106.64681 | 1423 ft | 161 kts | 15° |
| 2026-04-28 06:15 | 29.73332 | 106.65079 | 2058 ft | 162 kts | 15° |
| 2026-04-28 06:15 | 29.74413 | 106.65445 | 2769 ft | 165 kts | 13° |
| 2026-04-28 06:16 | 29.75493 | 106.65853 | 3481 ft | 166 kts | 17° |
| 2026-04-28 06:16 | 29.76595 | 106.66246 | 4114 ft | 167 kts | 11° |
| 2026-04-28 06:16 | 29.77737 | 106.66568 | 4661 ft | 175 kts | 13° |
| 2026-04-28 06:16 | 29.78991 | 106.66969 | 4935 ft | 201 kts | 14° |
| 2026-04-28 06:17 | 29.80467 | 106.67464 | 4892 ft | 241 kts | 15° |
| 2026-04-28 06:17 | 29.82151 | 106.68050 | 4897 ft | 256 kts | 16° |
| 2026-04-28 06:17 | 29.83865 | 106.68653 | 4906 ft | 260 kts | 16° |
| 2026-04-28 06:18 | 29.87467 | 106.69906 | 6380 ft | 268 kts | 17° |
| 2026-04-28 06:18 | 29.89227 | 106.70516 | 7385 ft | 267 kts | 17° |
| 2026-04-28 06:18 | 29.91018 | 106.71139 | 8230 ft | 272 kts | 17° |
| 2026-04-28 06:18 | 29.92825 | 106.71767 | 9089 ft | 276 kts | 18° |
| 2026-04-28 06:19 | 29.94672 | 106.72411 | 9946 ft | 280 kts | 18° |
| 2026-04-28 06:19 | 29.96539 | 106.73056 | 10709 ft | 287 kts | 18° |
| 2026-04-28 06:19 | 29.98504 | 106.73737 | 11188 ft | 304 kts | 17° |
| 2026-04-28 06:19 | 30.00592 | 106.74463 | 11707 ft | 318 kts | 18° |
| 2026-04-28 06:20 | 30.02714 | 106.75198 | 12412 ft | 324 kts | 18° |
| 2026-04-28 06:20 | 30.04893 | 106.75954 | 13155 ft | 330 kts | 17° |
| 2026-04-28 06:20 | 30.07117 | 106.76725 | 13879 ft | 336 kts | 18° |
| 2026-04-28 06:20 | 30.09348 | 106.77502 | 14573 ft | 342 kts | 18° |
| 2026-04-28 06:21 | 30.11665 | 106.78312 | 15260 ft | 348 kts | 17° |
| 2026-04-28 06:21 | 30.13988 | 106.79134 | 15928 ft | 354 kts | 19° |
| 2026-04-28 06:21 | 30.16177 | 106.80485 | 16545 ft | 360 kts | 40° |
| 2026-04-28 06:21 | 30.17767 | 106.82713 | 17172 ft | 365 kts | 63° |
| 2026-04-28 06:22 | 30.18534 | 106.85481 | 17774 ft | 367 kts | 86° |
| 2026-04-28 06:22 | 30.18360 | 106.88396 | 18374 ft | 367 kts | 108° |
| 2026-04-28 06:22 | 30.17599 | 106.91214 | 19003 ft | 370 kts | 111° |
| 2026-04-28 06:22 | 30.16787 | 106.94058 | 19603 ft | 376 kts | 111° |
| 2026-04-28 06:23 | 30.15989 | 106.96917 | 20200 ft | 380 kts | 111° |
| 2026-04-28 06:23 | 30.15186 | 106.99863 | 20790 ft | 384 kts | 110° |
| 2026-04-28 06:23 | 30.14397 | 107.02801 | 21351 ft | 389 kts | 110° |
| 2026-04-28 06:23 | 30.13869 | 107.04783 | 21727 ft | 391 kts | 110° |
| 2026-04-28 06:24 | 30.12794 | 107.08828 | 22479 ft | 397 kts | 110° |
| 2026-04-28 06:24 | 30.11983 | 107.11881 | 23024 ft | 401 kts | 110° |
| 2026-04-28 06:24 | 30.11161 | 107.14974 | 23556 ft | 405 kts | 110° |
| 2026-04-28 06:24 | 30.10342 | 107.18056 | 24067 ft | 409 kts | 110° |
| 2026-04-28 06:25 | 30.09503 | 107.21204 | 24575 ft | 412 kts | 110° |
| 2026-04-28 06:25 | 30.08654 | 107.24386 | 25072 ft | 416 kts | 110° |
| 2026-04-28 06:25 | 30.07798 | 107.27592 | 25553 ft | 419 kts | 110° |
| 2026-04-28 06:25 | 30.06949 | 107.30771 | 26014 ft | 423 kts | 110° |
| 2026-04-28 06:26 | 30.06073 | 107.34045 | 26470 ft | 426 kts | 110° |
| 2026-04-28 06:26 | 30.05198 | 107.37316 | 26906 ft | 429 kts | 110° |
| 2026-04-28 06:26 | 30.04320 | 107.40595 | 27328 ft | 432 kts | 110° |
| 2026-04-28 06:26 | 30.03434 | 107.43900 | 27736 ft | 435 kts | 111° |
| 2026-04-28 06:27 | 30.02534 | 107.47250 | 28147 ft | 438 kts | 111° |
| 2026-04-28 06:27 | 30.01628 | 107.50620 | 28648 ft | 438 kts | 111° |
| 2026-04-28 06:27 | 30.00736 | 107.53941 | 29218 ft | 436 kts | 111° |
| 2026-04-28 06:27 | 29.99845 | 107.57250 | 29793 ft | 434 kts | 111° |
| 2026-04-28 06:28 | 29.98955 | 107.60551 | 30381 ft | 433 kts | 111° |
| 2026-04-28 06:28 | 29.98060 | 107.63872 | 30994 ft | 432 kts | 112° |
| 2026-04-28 06:28 | 29.97162 | 107.67192 | 31600 ft | 430 kts | 112° |
| 2026-04-28 06:28 | 29.96274 | 107.70469 | 32065 ft | 430 kts | 113° |
| 2026-04-28 06:29 | 29.95400 | 107.73735 | 32376 ft | 433 kts | 111° |
| 2026-04-28 06:29 | 29.94726 | 107.77153 | 32678 ft | 439 kts | 104° |
| 2026-04-28 06:29 | 29.94373 | 107.80651 | 32989 ft | 445 kts | 98° |
| 2026-04-28 06:29 | 29.94350 | 107.84242 | 33101 ft | 451 kts | 91° |
| 2026-04-28 06:30 | 29.94680 | 107.87824 | 33104 ft | 453 kts | 84° |
| 2026-04-28 06:30 | 29.96237 | 107.94854 | 33105 ft | 456 kts | 76° |
| 2026-04-28 06:31 | 29.98075 | 108.01839 | 33098 ft | 455 kts | 76° |
| 2026-04-28 06:31 | 29.99871 | 108.08845 | 33096 ft | 455 kts | 76° |
| 2026-04-28 06:32 | 30.01646 | 108.15892 | 33123 ft | 455 kts | 76° |
| 2026-04-28 06:32 | 30.03389 | 108.22850 | 33128 ft | 454 kts | 76° |
| 2026-04-28 06:33 | 30.05147 | 108.29891 | 33094 ft | 454 kts | 76° |
| 2026-04-28 06:33 | 30.06893 | 108.36890 | 33084 ft | 454 kts | 76° |
| 2026-04-28 06:34 | 30.08644 | 108.43919 | 33081 ft | 454 kts | 76° |
| 2026-04-28 06:34 | 30.10375 | 108.50900 | 33080 ft | 454 kts | 76° |
| 2026-04-28 06:35 | 30.12178 | 108.57911 | 33081 ft | 454 kts | 73° |
| 2026-04-28 06:35 | 30.14203 | 108.64838 | 33086 ft | 455 kts | 72° |
| 2026-04-28 06:36 | 30.16233 | 108.71748 | 33093 ft | 455 kts | 73° |
| 2026-04-28 06:36 | 30.18250 | 108.78673 | 33106 ft | 455 kts | 73° |
| 2026-04-28 06:37 | 30.20259 | 108.85609 | 33111 ft | 455 kts | 73° |
| 2026-04-28 06:37 | 30.22256 | 108.92539 | 33102 ft | 455 kts | 74° |
| 2026-04-28 06:38 | 30.24026 | 108.99544 | 33096 ft | 455 kts | 76° |
| 2026-04-28 06:38 | 30.25741 | 109.06570 | 33096 ft | 455 kts | 76° |
| 2026-04-28 06:39 | 30.27452 | 109.13569 | 33098 ft | 455 kts | 76° |
| 2026-04-28 06:39 | 30.29168 | 109.20586 | 33101 ft | 455 kts | 76° |
| 2026-04-28 06:40 | 30.30890 | 109.27635 | 33104 ft | 455 kts | 76° |
| 2026-04-28 06:40 | 30.32599 | 109.34644 | 33105 ft | 455 kts | 76° |
| 2026-04-28 06:41 | 30.34328 | 109.41730 | 33107 ft | 456 kts | 76° |
| 2026-04-28 06:41 | 30.36038 | 109.48762 | 33109 ft | 456 kts | 76° |
| 2026-04-28 06:42 | 30.37733 | 109.55798 | 33110 ft | 456 kts | 76° |
| 2026-04-28 06:42 | 30.39262 | 109.62891 | 33109 ft | 455 kts | 81° |
| 2026-04-28 06:43 | 30.40342 | 109.70161 | 33107 ft | 456 kts | 83° |
| 2026-04-28 06:43 | 30.41390 | 109.77380 | 33106 ft | 456 kts | 83° |
| 2026-04-28 06:44 | 30.42449 | 109.84636 | 33105 ft | 456 kts | 83° |
| 2026-04-28 06:44 | 30.43506 | 109.91878 | 33104 ft | 456 kts | 83° |
| 2026-04-28 06:45 | 30.44566 | 109.99169 | 33102 ft | 456 kts | 83° |
| 2026-04-28 06:45 | 30.45617 | 110.06426 | 33101 ft | 456 kts | 83° |
| 2026-04-28 06:46 | 30.46666 | 110.13704 | 33022 ft | 456 kts | 83° |
| 2026-04-28 06:46 | 30.47705 | 110.20944 | 33017 ft | 458 kts | 83° |
| 2026-04-28 06:47 | 30.48748 | 110.28233 | 33083 ft | 458 kts | 83° |
| 2026-04-28 06:47 | 30.49788 | 110.35525 | 33101 ft | 459 kts | 83° |
| 2026-04-28 06:48 | 30.50827 | 110.42842 | 33106 ft | 459 kts | 83° |
| 2026-04-28 06:48 | 30.51865 | 110.50186 | 33108 ft | 460 kts | 83° |
| 2026-04-28 06:49 | 30.52894 | 110.57507 | 33109 ft | 460 kts | 83° |
| 2026-04-28 06:49 | 30.53923 | 110.64847 | 33109 ft | 461 kts | 83° |
| 2026-04-28 06:50 | 30.54956 | 110.72247 | 33107 ft | 461 kts | 83° |
| 2026-04-28 06:50 | 30.55975 | 110.79594 | 33106 ft | 462 kts | 83° |
| 2026-04-28 06:51 | 30.56999 | 110.86996 | 33104 ft | 462 kts | 83° |
| 2026-04-28 06:51 | 30.58016 | 110.94385 | 33101 ft | 463 kts | 83° |
| 2026-04-28 06:52 | 30.59026 | 111.01756 | 33099 ft | 463 kts | 83° |
| 2026-04-28 06:52 | 30.60041 | 111.09181 | 33094 ft | 464 kts | 83° |
| 2026-04-28 06:53 | 30.61047 | 111.16589 | 33090 ft | 464 kts | 83° |
| 2026-04-28 06:53 | 30.62052 | 111.24026 | 33085 ft | 464 kts | 83° |
| 2026-04-28 06:54 | 30.63046 | 111.31413 | 33081 ft | 465 kts | 83° |
| 2026-04-28 06:54 | 30.64052 | 111.38885 | 33079 ft | 465 kts | 83° |
| 2026-04-28 06:55 | 30.65045 | 111.46379 | 33081 ft | 465 kts | 84° |
| 2026-04-28 06:55 | 30.65590 | 111.53835 | 33077 ft | 463 kts | 89° |
| 2026-04-28 06:56 | 30.65944 | 111.61321 | 33086 ft | 463 kts | 90° |
| 2026-04-28 06:56 | 30.66316 | 111.68769 | 33106 ft | 464 kts | 90° |
| 2026-04-28 06:57 | 30.66704 | 111.76274 | 33121 ft | 464 kts | 90° |
| 2026-04-28 06:57 | 30.67084 | 111.83776 | 33122 ft | 464 kts | 90° |
| 2026-04-28 06:58 | 30.67457 | 111.91280 | 33121 ft | 464 kts | 90° |
| 2026-04-28 06:58 | 30.67850 | 111.98757 | 33120 ft | 464 kts | 89° |
| 2026-04-28 06:59 | 30.68373 | 112.06190 | 33115 ft | 464 kts | 88° |
| 2026-04-28 06:59 | 30.68904 | 112.13715 | 33109 ft | 466 kts | 88° |
| 2026-04-28 07:00 | 30.69419 | 112.21246 | 33097 ft | 467 kts | 89° |
| 2026-04-28 07:00 | 30.69925 | 112.28766 | 33100 ft | 467 kts | 88° |
| 2026-04-28 07:01 | 30.70428 | 112.36305 | 33115 ft | 468 kts | 88° |
| 2026-04-28 07:01 | 30.70928 | 112.43870 | 33120 ft | 468 kts | 88° |
| 2026-04-28 07:02 | 30.71419 | 112.51396 | 33121 ft | 467 kts | 88° |
| 2026-04-28 07:02 | 30.71906 | 112.58920 | 33120 ft | 467 kts | 88° |
| 2026-04-28 07:03 | 30.72305 | 112.65122 | 33119 ft | 467 kts | 89° |
| 2026-04-28 07:03 | 30.72778 | 112.72549 | 33118 ft | 467 kts | 89° |
| 2026-04-28 07:04 | 30.73134 | 112.78209 | 33118 ft | 467 kts | 89° |
| 2026-04-28 07:04 | 30.73606 | 112.85744 | 33117 ft | 467 kts | 89° |
| 2026-04-28 07:05 | 30.74073 | 112.93282 | 33116 ft | 467 kts | 89° |
| 2026-04-28 07:05 | 30.74537 | 113.00857 | 33115 ft | 467 kts | 89° |
| 2026-04-28 07:06 | 30.74994 | 113.08403 | 33114 ft | 467 kts | 89° |
| 2026-04-28 07:06 | 30.75402 | 113.15951 | 33113 ft | 466 kts | 91° |
| 2026-04-28 07:07 | 30.75614 | 113.23552 | 33112 ft | 466 kts | 91° |
| 2026-04-28 07:07 | 30.75800 | 113.31109 | 33111 ft | 465 kts | 91° |
| 2026-04-28 07:08 | 30.75987 | 113.38629 | 33110 ft | 465 kts | 91° |
| 2026-04-28 07:08 | 30.76172 | 113.46169 | 33107 ft | 465 kts | 91° |
| 2026-04-28 07:09 | 30.76353 | 113.53696 | 33105 ft | 465 kts | 91° |
| 2026-04-28 07:09 | 30.76531 | 113.61240 | 33105 ft | 465 kts | 91° |
| 2026-04-28 07:10 | 30.76705 | 113.68817 | 33104 ft | 464 kts | 91° |
| 2026-04-28 07:10 | 30.76872 | 113.76308 | 33105 ft | 464 kts | 91° |
| 2026-04-28 07:11 | 30.77035 | 113.83818 | 33105 ft | 464 kts | 91° |
| 2026-04-28 07:11 | 30.77194 | 113.91332 | 33105 ft | 464 kts | 91° |
| 2026-04-28 07:12 | 30.77347 | 113.98843 | 33105 ft | 463 kts | 91° |
| 2026-04-28 07:12 | 30.77572 | 114.06338 | 33105 ft | 464 kts | 89° |
| 2026-04-28 07:13 | 30.77953 | 114.13911 | 33083 ft | 465 kts | 86° |
| 2026-04-28 07:13 | 30.78970 | 114.21406 | 33075 ft | 467 kts | 77° |
| 2026-04-28 07:14 | 30.80884 | 114.28664 | 33145 ft | 468 kts | 68° |
| 2026-04-28 07:14 | 30.83235 | 114.35709 | 33171 ft | 468 kts | 69° |
| 2026-04-28 07:15 | 30.85540 | 114.42825 | 33125 ft | 467 kts | 69° |
| 2026-04-28 07:15 | 30.87838 | 114.49940 | 33110 ft | 468 kts | 69° |
| 2026-04-28 07:16 | 30.90147 | 114.57021 | 33108 ft | 468 kts | 69° |
| 2026-04-28 07:16 | 30.92448 | 114.64114 | 33108 ft | 467 kts | 68° |
| 2026-04-28 07:17 | 30.94756 | 114.71250 | 33109 ft | 468 kts | 69° |
| 2026-04-28 07:17 | 30.97049 | 114.78365 | 33112 ft | 468 kts | 69° |
| 2026-04-28 07:18 | 30.99343 | 114.85508 | 33114 ft | 468 kts | 69° |
| 2026-04-28 07:18 | 31.01632 | 114.92649 | 33117 ft | 468 kts | 69° |
| 2026-04-28 07:19 | 31.03915 | 114.99757 | 33120 ft | 468 kts | 69° |
| 2026-04-28 07:19 | 31.06193 | 115.06876 | 33123 ft | 469 kts | 69° |
| 2026-04-28 07:20 | 31.08469 | 115.14021 | 33127 ft | 469 kts | 69° |
| 2026-04-28 07:20 | 31.10749 | 115.21191 | 33130 ft | 469 kts | 69° |
| 2026-04-28 07:21 | 31.13003 | 115.28329 | 33135 ft | 469 kts | 69° |
| 2026-04-28 07:21 | 31.15325 | 115.35501 | 33140 ft | 469 kts | 68° |
| 2026-04-28 07:22 | 31.18820 | 115.46261 | 33147 ft | 469 kts | 68° |
| 2026-04-28 07:22 | 31.21134 | 115.53432 | 32957 ft | 470 kts | 68° |
| 2026-04-28 07:23 | 31.22271 | 115.56963 | 32711 ft | 467 kts | 68° |
| 2026-04-28 07:23 | 31.23411 | 115.60510 | 32463 ft | 465 kts | 68° |
| 2026-04-28 07:23 | 31.24542 | 115.64033 | 32214 ft | 462 kts | 68° |
| 2026-04-28 07:23 | 31.25675 | 115.67567 | 31961 ft | 460 kts | 68° |
| 2026-04-28 07:24 | 31.26805 | 115.71097 | 31712 ft | 460 kts | 68° |
| 2026-04-28 07:24 | 31.27941 | 115.74649 | 31461 ft | 459 kts | 68° |
| 2026-04-28 07:24 | 31.29068 | 115.78172 | 31211 ft | 459 kts | 68° |
| 2026-04-28 07:24 | 31.30181 | 115.81656 | 30965 ft | 459 kts | 69° |
| 2026-04-28 07:25 | 31.31292 | 115.85143 | 30718 ft | 458 kts | 68° |
| 2026-04-28 07:25 | 31.32408 | 115.88638 | 30469 ft | 457 kts | 68° |
| 2026-04-28 07:25 | 31.33548 | 115.92140 | 30220 ft | 457 kts | 68° |
| 2026-04-28 07:25 | 31.34703 | 115.95654 | 29969 ft | 456 kts | 68° |
| 2026-04-28 07:26 | 31.35832 | 115.99095 | 29722 ft | 456 kts | 68° |
| 2026-04-28 07:26 | 31.36988 | 116.02627 | 29470 ft | 456 kts | 68° |
| 2026-04-28 07:26 | 31.38104 | 116.06050 | 29225 ft | 455 kts | 68° |
| 2026-04-28 07:26 | 31.39241 | 116.09545 | 28980 ft | 455 kts | 68° |
| 2026-04-28 07:27 | 31.40370 | 116.13023 | 28738 ft | 455 kts | 68° |
| 2026-04-28 07:27 | 31.41503 | 116.16520 | 28495 ft | 455 kts | 68° |
| 2026-04-28 07:27 | 31.42629 | 116.19995 | 28254 ft | 454 kts | 68° |
| 2026-04-28 07:27 | 31.43755 | 116.23475 | 28004 ft | 454 kts | 68° |
| 2026-04-28 07:28 | 31.44882 | 116.26960 | 27753 ft | 454 kts | 68° |
| 2026-04-28 07:28 | 31.46001 | 116.30424 | 27503 ft | 455 kts | 68° |
| 2026-04-28 07:28 | 31.47119 | 116.33887 | 27253 ft | 455 kts | 68° |
| 2026-04-28 07:28 | 31.48237 | 116.37357 | 27003 ft | 455 kts | 68° |
| 2026-04-28 07:29 | 31.49358 | 116.40842 | 26768 ft | 455 kts | 68° |
| 2026-04-28 07:29 | 31.50466 | 116.44292 | 26716 ft | 455 kts | 68° |
| 2026-04-28 07:29 | 31.51582 | 116.47765 | 26714 ft | 455 kts | 68° |
| 2026-04-28 07:29 | 31.52706 | 116.51273 | 26715 ft | 454 kts | 69° |
| 2026-04-28 07:30 | 31.53815 | 116.54734 | 26716 ft | 454 kts | 69° |
| 2026-04-28 07:30 | 31.54937 | 116.58239 | 26717 ft | 454 kts | 69° |
| 2026-04-28 07:30 | 31.56050 | 116.61721 | 26719 ft | 454 kts | 69° |
| 2026-04-28 07:30 | 31.57157 | 116.65188 | 26720 ft | 454 kts | 69° |
| 2026-04-28 07:31 | 31.58264 | 116.68658 | 26720 ft | 454 kts | 69° |
| 2026-04-28 07:31 | 31.59370 | 116.72133 | 26722 ft | 454 kts | 69° |
| 2026-04-28 07:31 | 31.60477 | 116.75615 | 26724 ft | 454 kts | 69° |
| 2026-04-28 07:31 | 31.61593 | 116.79127 | 26726 ft | 454 kts | 69° |
| 2026-04-28 07:32 | 31.62696 | 116.82602 | 26727 ft | 455 kts | 69° |
| 2026-04-28 07:32 | 31.63803 | 116.86095 | 26728 ft | 455 kts | 69° |
| 2026-04-28 07:32 | 31.64897 | 116.89549 | 26714 ft | 453 kts | 69° |
| 2026-04-28 07:32 | 31.65983 | 116.92988 | 26461 ft | 448 kts | 69° |
| 2026-04-28 07:33 | 31.67078 | 116.96455 | 26207 ft | 450 kts | 69° |
| 2026-04-28 07:33 | 31.68164 | 116.99897 | 25957 ft | 449 kts | 69° |
| 2026-04-28 07:33 | 31.69249 | 117.03352 | 25705 ft | 448 kts | 69° |
| 2026-04-28 07:33 | 31.70327 | 117.06824 | 25433 ft | 446 kts | 69° |
| 2026-04-28 07:34 | 31.71393 | 117.10274 | 25161 ft | 444 kts | 69° |
| 2026-04-28 07:34 | 31.72447 | 117.13696 | 24890 ft | 443 kts | 69° |
| 2026-04-28 07:34 | 31.73509 | 117.17142 | 24617 ft | 441 kts | 69° |
| 2026-04-28 07:34 | 31.74568 | 117.20584 | 24362 ft | 440 kts | 69° |
| 2026-04-28 07:35 | 31.75602 | 117.23943 | 24113 ft | 438 kts | 69° |
| 2026-04-28 07:35 | 31.76607 | 117.27390 | 23852 ft | 436 kts | 73° |
| 2026-04-28 07:35 | 31.77308 | 117.30822 | 23465 ft | 432 kts | 80° |
| 2026-04-28 07:35 | 31.77678 | 117.34343 | 22952 ft | 429 kts | 88° |
| 2026-04-28 07:36 | 31.77793 | 117.37845 | 22461 ft | 426 kts | 90° |
| 2026-04-28 07:36 | 31.77846 | 117.41351 | 21982 ft | 423 kts | 91° |
| 2026-04-28 07:36 | 31.77892 | 117.44762 | 21517 ft | 420 kts | 91° |
| 2026-04-28 07:36 | 31.77946 | 117.48211 | 21050 ft | 418 kts | 90° |
| 2026-04-28 07:37 | 31.78007 | 117.51608 | 20596 ft | 415 kts | 90° |
| 2026-04-28 07:37 | 31.78074 | 117.54998 | 20141 ft | 411 kts | 90° |
| 2026-04-28 07:37 | 31.78140 | 117.58377 | 19692 ft | 408 kts | 90° |
| 2026-04-28 07:37 | 31.78207 | 117.61736 | 19237 ft | 405 kts | 90° |
| 2026-04-28 07:38 | 31.78281 | 117.65033 | 18785 ft | 402 kts | 91° |
| 2026-04-28 07:38 | 31.78348 | 117.68306 | 18325 ft | 399 kts | 91° |
| 2026-04-28 07:38 | 31.78409 | 117.71601 | 17863 ft | 395 kts | 91° |
| 2026-04-28 07:38 | 31.78468 | 117.74803 | 17411 ft | 392 kts | 91° |
| 2026-04-28 07:39 | 31.78532 | 117.77998 | 16953 ft | 389 kts | 91° |
| 2026-04-28 07:39 | 31.78594 | 117.81168 | 16499 ft | 386 kts | 91° |
| 2026-04-28 07:39 | 31.78656 | 117.84324 | 16040 ft | 384 kts | 91° |
| 2026-04-28 07:39 | 31.78718 | 117.87488 | 15599 ft | 380 kts | 92° |
| 2026-04-28 07:40 | 31.78777 | 117.90580 | 15193 ft | 375 kts | 92° |
| 2026-04-28 07:40 | 31.78835 | 117.93653 | 14940 ft | 369 kts | 92° |
| 2026-04-28 07:40 | 31.78886 | 117.96692 | 14929 ft | 369 kts | 93° |
| 2026-04-28 07:40 | 31.78934 | 117.99715 | 14760 ft | 367 kts | 93° |
| 2026-04-28 07:41 | 31.78983 | 118.02714 | 14447 ft | 361 kts | 92° |
| 2026-04-28 07:41 | 31.79040 | 118.05696 | 14004 ft | 358 kts | 93° |
| 2026-04-28 07:41 | 31.79093 | 118.08595 | 13580 ft | 355 kts | 93° |
| 2026-04-28 07:41 | 31.79151 | 118.11510 | 13160 ft | 351 kts | 94° |
| 2026-04-28 07:42 | 31.79205 | 118.14353 | 12752 ft | 347 kts | 94° |
| 2026-04-28 07:42 | 31.79265 | 118.17178 | 12345 ft | 344 kts | 94° |
| 2026-04-28 07:42 | 31.79324 | 118.20001 | 11938 ft | 339 kts | 95° |
| 2026-04-28 07:42 | 31.79372 | 118.22780 | 11525 ft | 336 kts | 94° |
| 2026-04-28 07:43 | 31.79421 | 118.25503 | 11136 ft | 332 kts | 95° |
| 2026-04-28 07:43 | 31.79473 | 118.28239 | 10742 ft | 327 kts | 95° |
| 2026-04-28 07:43 | 31.79449 | 118.30881 | 10470 ft | 317 kts | 99° |
| 2026-04-28 07:43 | 31.79307 | 118.33392 | 10281 ft | 303 kts | 99° |
| 2026-04-28 07:44 | 31.79136 | 118.35858 | 10087 ft | 292 kts | 98° |
| 2026-04-28 07:44 | 31.78971 | 118.38218 | 9851 ft | 283 kts | 97° |
| 2026-04-28 07:44 | 31.78815 | 118.40494 | 9493 ft | 278 kts | 96° |
| 2026-04-28 07:44 | 31.78663 | 118.42737 | 9101 ft | 276 kts | 95° |
| 2026-04-28 07:45 | 31.78514 | 118.44981 | 8733 ft | 272 kts | 94° |
| 2026-04-28 07:45 | 31.78369 | 118.47190 | 8324 ft | 267 kts | 94° |
| 2026-04-28 07:45 | 31.78225 | 118.49366 | 7889 ft | 266 kts | 92° |
| 2026-04-28 07:45 | 31.78086 | 118.51524 | 7506 ft | 262 kts | 92° |
| 2026-04-28 07:46 | 31.77946 | 118.53662 | 7112 ft | 259 kts | 91° |
| 2026-04-28 07:46 | 31.77810 | 118.55750 | 6904 ft | 255 kts | 91° |
| 2026-04-28 07:46 | 31.77667 | 118.57855 | 6885 ft | 256 kts | 90° |
| 2026-04-28 07:46 | 31.77530 | 118.59952 | 6885 ft | 256 kts | 91° |
| 2026-04-28 07:47 | 31.77389 | 118.62058 | 6885 ft | 256 kts | 91° |
| 2026-04-28 07:47 | 31.77248 | 118.64157 | 6886 ft | 256 kts | 91° |
| 2026-04-28 07:47 | 31.77107 | 118.66268 | 6887 ft | 256 kts | 92° |
| 2026-04-28 07:47 | 31.76958 | 118.68352 | 6886 ft | 257 kts | 91° |
| 2026-04-28 07:48 | 31.76817 | 118.70435 | 6886 ft | 256 kts | 91° |
| 2026-04-28 07:48 | 31.76677 | 118.72532 | 6886 ft | 257 kts | 91° |
| 2026-04-28 07:48 | 31.76564 | 118.74246 | 6886 ft | 257 kts | 91° |
| 2026-04-28 07:48 | 31.76419 | 118.76350 | 6820 ft | 257 kts | 92° |
| 2026-04-28 07:49 | 31.76264 | 118.78438 | 6694 ft | 256 kts | 92° |
| 2026-04-28 07:49 | 31.76106 | 118.80543 | 6567 ft | 256 kts | 91° |
| 2026-04-28 07:49 | 31.75949 | 118.82626 | 6440 ft | 255 kts | 91° |
| 2026-04-28 07:49 | 31.75796 | 118.84738 | 6311 ft | 255 kts | 91° |
| 2026-04-28 07:50 | 31.75647 | 118.86791 | 6187 ft | 255 kts | 92° |
| 2026-04-28 07:50 | 31.75478 | 118.88866 | 6061 ft | 255 kts | 94° |
| 2026-04-28 07:50 | 31.75238 | 118.90927 | 5938 ft | 254 kts | 94° |
| 2026-04-28 07:50 | 31.74990 | 118.92987 | 5811 ft | 254 kts | 94° |
| 2026-04-28 07:51 | 31.74740 | 118.95068 | 5682 ft | 253 kts | 95° |
| 2026-04-28 07:51 | 31.74495 | 118.97102 | 5559 ft | 253 kts | 95° |
| 2026-04-28 07:51 | 31.74243 | 118.99165 | 5432 ft | 253 kts | 95° |
| 2026-04-28 07:51 | 31.73991 | 119.01239 | 5304 ft | 252 kts | 94° |
| 2026-04-28 07:52 | 31.73746 | 119.03270 | 5179 ft | 252 kts | 94° |
| 2026-04-28 07:52 | 31.73506 | 119.05331 | 5037 ft | 251 kts | 91° |
| 2026-04-28 07:52 | 31.73687 | 119.07333 | 4869 ft | 246 kts | 69° |
| 2026-04-28 07:52 | 31.74467 | 119.09101 | 4697 ft | 244 kts | 57° |
| 2026-04-28 07:53 | 31.75378 | 119.10777 | 4383 ft | 242 kts | 57° |
| 2026-04-28 07:53 | 31.76266 | 119.12422 | 4106 ft | 236 kts | 57° |
| 2026-04-28 07:53 | 31.77132 | 119.14023 | 3936 ft | 227 kts | 57° |
| 2026-04-28 07:53 | 31.78009 | 119.15540 | 3756 ft | 219 kts | 47° |
| 2026-04-28 07:54 | 31.79316 | 119.16379 | 3549 ft | 217 kts | 8° |
| 2026-04-28 07:54 | 31.80800 | 119.16034 | 3380 ft | 218 kts | 336° |
| 2026-04-28 07:54 | 31.82088 | 119.15081 | 3157 ft | 216 kts | 332° |
| 2026-04-28 07:54 | 31.83353 | 119.14119 | 3005 ft | 214 kts | 332° |
| 2026-04-28 07:55 | 31.84518 | 119.13041 | 2967 ft | 212 kts | 309° |
| 2026-04-28 07:55 | 31.84992 | 119.11441 | 2958 ft | 206 kts | 270° |
| 2026-04-28 07:55 | 31.84657 | 119.09826 | 3071 ft | 207 kts | 248° |
| 2026-04-28 07:55 | 31.83975 | 119.08337 | 3034 ft | 207 kts | 239° |
| 2026-04-28 07:56 | 31.83200 | 119.06893 | 3014 ft | 207 kts | 237° |
| 2026-04-28 07:56 | 31.82420 | 119.05481 | 3004 ft | 207 kts | 237° |
| 2026-04-28 07:56 | 31.81636 | 119.04047 | 3000 ft | 207 kts | 238° |
| 2026-04-28 07:56 | 31.80856 | 119.02595 | 2892 ft | 206 kts | 238° |
| 2026-04-28 07:57 | 31.80095 | 119.01177 | 2628 ft | 202 kts | 238° |
| 2026-04-28 07:57 | 31.79351 | 118.99779 | 2351 ft | 194 kts | 238° |
| 2026-04-28 07:57 | 31.78663 | 118.98489 | 2089 ft | 184 kts | 238° |
| 2026-04-28 07:57 | 31.77998 | 118.97246 | 1846 ft | 174 kts | 238° |
| 2026-04-28 07:58 | 31.77377 | 118.96084 | 1650 ft | 160 kts | 237° |
| 2026-04-28 07:58 | 31.76795 | 118.95001 | 1423 ft | 149 kts | 237° |
| 2026-04-28 07:58 | 31.76413 | 118.94290 | 1293 ft | 148 kts | 238° |
| 2026-04-28 07:58 | 31.75891 | 118.93314 | 1114 ft | 146 kts | 238° |
| 2026-04-28 07:59 | 31.75364 | 118.92323 | 920 ft | 142 kts | 239° |
| 2026-04-28 07:59 | 31.74853 | 118.91341 | 723 ft | 138 kts | 238° |
| 2026-04-28 07:59 | 31.74347 | 118.90400 | 534 ft | 135 kts | 237° |
| 2026-04-28 07:59 | 31.73849 | 118.89468 | 359 ft | 133 kts | 238° |
| 2026-04-28 08:00 | 31.73348 | 118.88541 | 185 ft | 132 kts | 238° |
| 2026-04-28 08:00 | 31.72856 | 118.87615 | 56 ft | 127 kts | 239° |
| 2026-04-28 08:00 | 31.72475 | 118.86911 | 56 ft | 78 kts | 238° |
| 2026-04-28 08:00 | 31.72306 | 118.86517 | 56 ft | 28 kts | 258° |
| 2026-04-28 08:01 | 31.72297 | 118.86358 | 56 ft | 16 kts | 282° |
| 2026-04-28 08:01 | 31.72372 | 118.86341 | 56 ft | 7 kts | 60° |
| 2026-04-28 08:01 | 31.72400 | 118.86396 | 56 ft | 8 kts | 57° |
| 2026-04-28 08:01 | 31.72433 | 118.86459 | 56 ft | 9 kts | 59° |
| 2026-04-28 08:02 | 31.72459 | 118.86507 | 56 ft | 10 kts | 58° |
| 2026-04-28 08:02 | 31.72499 | 118.86582 | 56 ft | 11 kts | 58° |
| 2026-04-28 08:02 | 31.72546 | 118.86670 | 56 ft | 13 kts | 57° |
| 2026-04-28 08:02 | 31.72598 | 118.86766 | 56 ft | 14 kts | 58° |
| 2026-04-28 08:03 | 31.72651 | 118.86865 | 56 ft | 14 kts | 58° |
| 2026-04-28 08:03 | 31.72696 | 118.86951 | 56 ft | 12 kts | 58° |
| 2026-04-28 08:03 | 31.72744 | 118.87039 | 56 ft | 13 kts | 58° |
| 2026-04-28 08:03 | 31.72778 | 118.87102 | 56 ft | 7 kts | 56° |
| 2026-04-28 08:04 | 31.72820 | 118.87122 | 56 ft | 7 kts | 343° |
| 2026-04-28 08:04 | 31.72867 | 118.87090 | 56 ft | 7 kts | 328° |
| 2026-04-28 08:04 | 31.72919 | 118.87060 | 56 ft | 9 kts | 348° |
| 2026-04-28 08:04 | 31.72972 | 118.87052 | 56 ft | 7 kts | 345° |
| 2026-04-28 08:05 | 31.73011 | 118.87028 | 56 ft | 5 kts | 328° |
| 2026-04-28 08:05 | 31.73031 | 118.87013 | 56 ft | 2 kts | 328° |
| 2026-04-28 08:05 | 31.73042 | 118.87006 | 56 ft | 1 kts | 327° |
| 2026-04-28 08:05 | 31.73042 | 118.87005 | 56 ft | 0 kts | 327° |